sensor_id;sensor_type;location;lat;lon;timestamp;P1;durP1;ratioP1;P2;durP2;ratioP2
76495;SDS011;65329;52.544;4.662;2023-04-24T00:01:58;1.00;;;0.50;;
76495;SDS011;65329;52.544;4.662;2023-04-24T00:04:25;1.02;;;0.55;;
76495;SDS011;65329;52.544;4.662;2023-04-24T00:06:52;0.50;;;0.40;;
76495;SDS011;65329;52.544;4.662;2023-04-24T00:09:23;0.52;;;0.45;;
76495;SDS011;65329;52.544;4.662;2023-04-24T00:11:50;1.40;;;0.60;;
76495;SDS011;65329;52.544;4.662;2023-04-24T00:14:17;1.63;;;0.50;;
76495;SDS011;65329;52.544;4.662;2023-04-24T00:16:45;2.10;;;0.52;;
76495;SDS011;65329;52.544;4.662;2023-04-24T00:19:12;1.88;;;0.50;;
76495;SDS011;65329;52.544;4.662;2023-04-24T00:21:39;1.20;;;0.55;;
76495;SDS011;65329;52.544;4.662;2023-04-24T00:24:08;2.42;;;0.80;;
76495;SDS011;65329;52.544;4.662;2023-04-24T00:26:36;1.38;;;0.70;;
76495;SDS011;65329;52.544;4.662;2023-04-24T00:29:03;1.05;;;0.50;;
76495;SDS011;65329;52.544;4.662;2023-04-24T00:31:30;1.60;;;0.70;;
76495;SDS011;65329;52.544;4.662;2023-04-24T00:33:59;1.10;;;0.55;;
76495;SDS011;65329;52.544;4.662;2023-04-24T00:36:26;1.10;;;0.60;;
76495;SDS011;65329;52.544;4.662;2023-04-24T00:38:54;1.75;;;0.70;;
76495;SDS011;65329;52.544;4.662;2023-04-24T00:41:21;2.67;;;0.70;;
76495;SDS011;65329;52.544;4.662;2023-04-24T00:43:48;2.05;;;0.80;;
76495;SDS011;65329;52.544;4.662;2023-04-24T00:46:16;2.95;;;1.00;;
76495;SDS011;65329;52.544;4.662;2023-04-24T00:48:44;3.53;;;1.60;;
76495;SDS011;65329;52.544;4.662;2023-04-24T00:51:11;1.40;;;0.90;;
76495;SDS011;65329;52.544;4.662;2023-04-24T00:53:41;1.45;;;0.80;;
76495;SDS011;65329;52.544;4.662;2023-04-24T00:56:08;3.90;;;1.10;;
76495;SDS011;65329;52.544;4.662;2023-04-24T00:58:35;3.67;;;1.33;;
76495;SDS011;65329;52.544;4.662;2023-04-24T01:01:03;1.77;;;1.30;;
76495;SDS011;65329;52.544;4.662;2023-04-24T01:03:42;5.78;;;2.50;;
76495;SDS011;65329;52.544;4.662;2023-04-24T01:06:09;5.00;;;2.42;;
76495;SDS011;65329;52.544;4.662;2023-04-24T01:08:37;6.25;;;2.85;;
76495;SDS011;65329;52.544;4.662;2023-04-24T01:11:07;8.23;;;2.83;;
76495;SDS011;65329;52.544;4.662;2023-04-24T01:13:34;4.68;;;2.53;;
76495;SDS011;65329;52.544;4.662;2023-04-24T01:16:02;6.53;;;2.30;;
76495;SDS011;65329;52.544;4.662;2023-04-24T01:18:29;5.95;;;2.40;;
76495;SDS011;65329;52.544;4.662;2023-04-24T01:20:57;5.38;;;2.13;;
76495;SDS011;65329;52.544;4.662;2023-04-24T01:23:27;3.88;;;1.80;;
76495;SDS011;65329;52.544;4.662;2023-04-24T01:25:54;5.28;;;2.03;;
76495;SDS011;65329;52.544;4.662;2023-04-24T01:28:21;4.88;;;1.90;;
76495;SDS011;65329;52.544;4.662;2023-04-24T01:30:48;5.97;;;1.63;;
76495;SDS011;65329;52.544;4.662;2023-04-24T01:33:16;3.20;;;1.40;;
76495;SDS011;65329;52.544;4.662;2023-04-24T01:35:44;5.03;;;1.30;;
76495;SDS011;65329;52.544;4.662;2023-04-24T01:38:11;2.65;;;1.30;;
76495;SDS011;65329;52.544;4.662;2023-04-24T01:40:38;8.57;;;1.65;;
76495;SDS011;65329;52.544;4.662;2023-04-24T01:43:07;5.13;;;1.58;;
76495;SDS011;65329;52.544;4.662;2023-04-24T01:45:35;2.15;;;1.33;;
76495;SDS011;65329;52.544;4.662;2023-04-24T01:48:03;5.65;;;1.58;;
76495;SDS011;65329;52.544;4.662;2023-04-24T01:50:32;6.95;;;2.40;;
76495;SDS011;65329;52.544;4.662;2023-04-24T01:52:59;2.22;;;1.40;;
76495;SDS011;65329;52.544;4.662;2023-04-24T01:55:28;5.90;;;1.73;;
76495;SDS011;65329;52.544;4.662;2023-04-24T01:57:55;5.80;;;1.70;;
76495;SDS011;65329;52.544;4.662;2023-04-24T02:00:28;5.43;;;1.85;;
76495;SDS011;65329;52.544;4.662;2023-04-24T02:02:55;3.88;;;1.60;;
76495;SDS011;65329;52.544;4.662;2023-04-24T02:05:24;5.75;;;1.85;;
76495;SDS011;65329;52.544;4.662;2023-04-24T02:07:53;7.78;;;1.60;;
76495;SDS011;65329;52.544;4.662;2023-04-24T02:10:20;5.35;;;1.50;;
76495;SDS011;65329;52.544;4.662;2023-04-24T02:12:47;4.00;;;1.40;;
76495;SDS011;65329;52.544;4.662;2023-04-24T02:15:14;5.75;;;1.63;;
76495;SDS011;65329;52.544;4.662;2023-04-24T02:17:41;5.25;;;1.67;;
76495;SDS011;65329;52.544;4.662;2023-04-24T02:20:09;3.50;;;1.20;;
76495;SDS011;65329;52.544;4.662;2023-04-24T02:22:37;3.17;;;1.17;;
76495;SDS011;65329;52.544;4.662;2023-04-24T02:25:06;4.00;;;1.20;;
76495;SDS011;65329;52.544;4.662;2023-04-24T02:27:34;6.20;;;1.55;;
76495;SDS011;65329;52.544;4.662;2023-04-24T02:30:05;6.60;;;1.90;;
76495;SDS011;65329;52.544;4.662;2023-04-24T02:32:32;5.03;;;1.52;;
76495;SDS011;65329;52.544;4.662;2023-04-24T02:35:00;6.78;;;1.48;;
76495;SDS011;65329;52.544;4.662;2023-04-24T02:37:28;9.50;;;1.15;;
76495;SDS011;65329;52.544;4.662;2023-04-24T02:39:54;7.57;;;1.83;;
76495;SDS011;65329;52.544;4.662;2023-04-24T02:42:21;7.63;;;1.05;;
76495;SDS011;65329;52.544;4.662;2023-04-24T02:44:48;8.35;;;1.23;;
76495;SDS011;65329;52.544;4.662;2023-04-24T02:47:17;6.38;;;1.00;;
76495;SDS011;65329;52.544;4.662;2023-04-24T02:49:44;6.47;;;1.55;;
76495;SDS011;65329;52.544;4.662;2023-04-24T02:52:12;7.38;;;1.20;;
76495;SDS011;65329;52.544;4.662;2023-04-24T02:54:39;3.72;;;1.02;;
76495;SDS011;65329;52.544;4.662;2023-04-24T02:57:06;4.30;;;1.23;;
76495;SDS011;65329;52.544;4.662;2023-04-24T02:59:35;6.53;;;1.02;;
76495;SDS011;65329;52.544;4.662;2023-04-24T03:02:02;3.47;;;1.38;;
76495;SDS011;65329;52.544;4.662;2023-04-24T03:04:29;6.22;;;1.10;;
76495;SDS011;65329;52.544;4.662;2023-04-24T03:06:56;7.57;;;1.25;;
76495;SDS011;65329;52.544;4.662;2023-04-24T03:11:53;9.00;;;1.50;;
76495;SDS011;65329;52.544;4.662;2023-04-24T03:14:20;4.47;;;0.90;;
76495;SDS011;65329;52.544;4.662;2023-04-24T03:16:48;7.68;;;1.90;;
76495;SDS011;65329;52.544;4.662;2023-04-24T03:19:16;7.82;;;1.27;;
76495;SDS011;65329;52.544;4.662;2023-04-24T03:21:57;3.72;;;0.60;;
76495;SDS011;65329;52.544;4.662;2023-04-24T03:24:24;3.80;;;0.80;;
76495;SDS011;65329;52.544;4.662;2023-04-24T03:26:51;4.15;;;0.73;;
76495;SDS011;65329;52.544;4.662;2023-04-24T03:29:39;3.78;;;0.50;;
76495;SDS011;65329;52.544;4.662;2023-04-24T03:32:07;0.77;;;0.30;;
76495;SDS011;65329;52.544;4.662;2023-04-24T03:34:36;2.00;;;0.47;;
76495;SDS011;65329;52.544;4.662;2023-04-24T03:37:03;7.10;;;0.90;;
76495;SDS011;65329;52.544;4.662;2023-04-24T03:39:33;1.83;;;0.55;;
76495;SDS011;65329;52.544;4.662;2023-04-24T03:42:00;1.52;;;0.90;;
76495;SDS011;65329;52.544;4.662;2023-04-24T03:44:39;2.63;;;0.50;;
76495;SDS011;65329;52.544;4.662;2023-04-24T03:47:06;2.17;;;0.80;;
76495;SDS011;65329;52.544;4.662;2023-04-24T03:49:35;6.93;;;0.93;;
76495;SDS011;65329;52.544;4.662;2023-04-24T03:52:03;2.75;;;0.95;;
76495;SDS011;65329;52.544;4.662;2023-04-24T03:54:30;2.42;;;0.60;;
76495;SDS011;65329;52.544;4.662;2023-04-24T03:56:58;4.90;;;0.85;;
76495;SDS011;65329;52.544;4.662;2023-04-24T03:59:27;1.25;;;0.73;;
76495;SDS011;65329;52.544;4.662;2023-04-24T04:02:16;2.08;;;0.80;;
76495;SDS011;65329;52.544;4.662;2023-04-24T04:04:44;1.80;;;0.70;;
76495;SDS011;65329;52.544;4.662;2023-04-24T04:07:11;4.50;;;1.17;;
76495;SDS011;65329;52.544;4.662;2023-04-24T04:09:41;3.42;;;1.33;;
76495;SDS011;65329;52.544;4.662;2023-04-24T04:12:08;2.17;;;1.10;;
76495;SDS011;65329;52.544;4.662;2023-04-24T04:14:37;3.30;;;1.35;;
76495;SDS011;65329;52.544;4.662;2023-04-24T04:17:04;1.63;;;0.80;;
76495;SDS011;65329;52.544;4.662;2023-04-24T04:19:32;3.30;;;1.17;;
76495;SDS011;65329;52.544;4.662;2023-04-24T04:21:59;2.25;;;1.00;;
76495;SDS011;65329;52.544;4.662;2023-04-24T04:24:44;1.98;;;1.02;;
76495;SDS011;65329;52.544;4.662;2023-04-24T04:27:15;2.83;;;1.20;;
76495;SDS011;65329;52.544;4.662;2023-04-24T04:29:53;1.00;;;0.73;;
76495;SDS011;65329;52.544;4.662;2023-04-24T04:32:20;2.03;;;1.20;;
76495;SDS011;65329;52.544;4.662;2023-04-24T04:34:47;2.28;;;0.98;;
76495;SDS011;65329;52.544;4.662;2023-04-24T04:37:15;2.67;;;0.98;;
76495;SDS011;65329;52.544;4.662;2023-04-24T04:40:01;5.07;;;1.83;;
76495;SDS011;65329;52.544;4.662;2023-04-24T04:42:39;9.30;;;3.67;;
76495;SDS011;65329;52.544;4.662;2023-04-24T04:45:09;9.05;;;3.90;;
76495;SDS011;65329;52.544;4.662;2023-04-24T04:47:53;8.13;;;4.90;;
76495;SDS011;65329;52.544;4.662;2023-04-24T04:50:23;8.73;;;4.70;;
76495;SDS011;65329;52.544;4.662;2023-04-24T04:52:54;8.70;;;4.18;;
76495;SDS011;65329;52.544;4.662;2023-04-24T04:55:28;7.45;;;4.55;;
76495;SDS011;65329;52.544;4.662;2023-04-24T04:58:09;12.43;;;5.10;;
76495;SDS011;65329;52.544;4.662;2023-04-24T05:00:36;12.73;;;6.32;;
76495;SDS011;65329;52.544;4.662;2023-04-24T05:05:54;20.90;;;9.15;;
76495;SDS011;65329;52.544;4.662;2023-04-24T05:08:23;23.40;;;10.57;;
76495;SDS011;65329;52.544;4.662;2023-04-24T05:10:53;21.00;;;9.13;;
76495;SDS011;65329;52.544;4.662;2023-04-24T05:13:25;17.10;;;7.05;;
76495;SDS011;65329;52.544;4.662;2023-04-24T05:16:10;14.43;;;7.07;;
76495;SDS011;65329;52.544;4.662;2023-04-24T05:18:39;13.63;;;7.80;;
76495;SDS011;65329;52.544;4.662;2023-04-24T05:21:09;15.25;;;7.25;;
76495;SDS011;65329;52.544;4.662;2023-04-24T05:23:43;17.50;;;7.00;;
76495;SDS011;65329;52.544;4.662;2023-04-24T05:26:13;17.63;;;6.80;;
76495;SDS011;65329;52.544;4.662;2023-04-24T05:28:41;16.85;;;7.15;;
76495;SDS011;65329;52.544;4.662;2023-04-24T05:31:11;13.00;;;7.00;;
76495;SDS011;65329;52.544;4.662;2023-04-24T05:33:40;14.48;;;7.20;;
76495;SDS011;65329;52.544;4.662;2023-04-24T05:36:07;13.20;;;6.43;;
76495;SDS011;65329;52.544;4.662;2023-04-24T05:38:35;14.38;;;5.72;;
76495;SDS011;65329;52.544;4.662;2023-04-24T05:41:02;12.00;;;5.32;;
76495;SDS011;65329;52.544;4.662;2023-04-24T05:43:29;10.88;;;5.50;;
76495;SDS011;65329;52.544;4.662;2023-04-24T05:45:56;10.75;;;5.45;;
76495;SDS011;65329;52.544;4.662;2023-04-24T05:48:23;12.40;;;5.95;;
76495;SDS011;65329;52.544;4.662;2023-04-24T05:50:51;10.55;;;4.43;;
76495;SDS011;65329;52.544;4.662;2023-04-24T05:53:19;9.88;;;4.93;;
76495;SDS011;65329;52.544;4.662;2023-04-24T05:55:46;10.35;;;4.68;;
76495;SDS011;65329;52.544;4.662;2023-04-24T05:58:16;9.93;;;4.78;;
76495;SDS011;65329;52.544;4.662;2023-04-24T06:00:45;9.05;;;4.13;;
76495;SDS011;65329;52.544;4.662;2023-04-24T06:03:13;8.55;;;4.78;;
76495;SDS011;65329;52.544;4.662;2023-04-24T06:05:41;10.70;;;4.60;;
76495;SDS011;65329;52.544;4.662;2023-04-24T06:08:08;9.35;;;4.75;;
76495;SDS011;65329;52.544;4.662;2023-04-24T06:10:39;11.52;;;5.63;;
76495;SDS011;65329;52.544;4.662;2023-04-24T06:13:07;17.38;;;5.88;;
76495;SDS011;65329;52.544;4.662;2023-04-24T06:15:37;13.07;;;5.25;;
76495;SDS011;65329;52.544;4.662;2023-04-24T06:18:11;12.43;;;5.03;;
76495;SDS011;65329;52.544;4.662;2023-04-24T06:20:42;11.02;;;4.55;;
76495;SDS011;65329;52.544;4.662;2023-04-24T06:23:09;12.60;;;4.82;;
76495;SDS011;65329;52.544;4.662;2023-04-24T06:25:37;9.80;;;3.95;;
76495;SDS011;65329;52.544;4.662;2023-04-24T06:28:04;9.68;;;4.18;;
76495;SDS011;65329;52.544;4.662;2023-04-24T06:30:31;11.75;;;3.83;;
76495;SDS011;65329;52.544;4.662;2023-04-24T06:32:58;6.00;;;3.88;;
76495;SDS011;65329;52.544;4.662;2023-04-24T06:35:44;11.05;;;4.53;;
76495;SDS011;65329;52.544;4.662;2023-04-24T06:38:11;11.27;;;4.25;;
76495;SDS011;65329;52.544;4.662;2023-04-24T06:40:38;11.95;;;4.25;;
76495;SDS011;65329;52.544;4.662;2023-04-24T06:43:07;12.45;;;3.50;;
76495;SDS011;65329;52.544;4.662;2023-04-24T06:45:34;15.15;;;3.97;;
76495;SDS011;65329;52.544;4.662;2023-04-24T06:48:01;16.20;;;4.65;;
76495;SDS011;65329;52.544;4.662;2023-04-24T06:50:28;18.17;;;4.05;;
76495;SDS011;65329;52.544;4.662;2023-04-24T06:52:55;11.07;;;3.75;;
76495;SDS011;65329;52.544;4.662;2023-04-24T06:55:23;13.70;;;4.13;;
76495;SDS011;65329;52.544;4.662;2023-04-24T06:57:49;8.77;;;2.55;;
76495;SDS011;65329;52.544;4.662;2023-04-24T07:00:16;13.80;;;3.50;;
76495;SDS011;65329;52.544;4.662;2023-04-24T07:02:44;11.55;;;2.92;;
76495;SDS011;65329;52.544;4.662;2023-04-24T07:05:12;12.45;;;2.10;;
76495;SDS011;65329;52.544;4.662;2023-04-24T07:07:39;12.98;;;2.97;;
76495;SDS011;65329;52.544;4.662;2023-04-24T07:10:06;10.75;;;2.58;;
76495;SDS011;65329;52.544;4.662;2023-04-24T07:12:35;12.57;;;2.28;;
76495;SDS011;65329;52.544;4.662;2023-04-24T07:15:04;7.18;;;2.30;;
76495;SDS011;65329;52.544;4.662;2023-04-24T07:17:32;12.32;;;2.17;;
76495;SDS011;65329;52.544;4.662;2023-04-24T07:19:59;12.05;;;2.40;;
76495;SDS011;65329;52.544;4.662;2023-04-24T07:22:26;9.32;;;2.10;;
76495;SDS011;65329;52.544;4.662;2023-04-24T07:24:55;9.20;;;1.80;;
76495;SDS011;65329;52.544;4.662;2023-04-24T07:27:23;8.65;;;2.17;;
76495;SDS011;65329;52.544;4.662;2023-04-24T07:29:50;10.40;;;3.45;;
76495;SDS011;65329;52.544;4.662;2023-04-24T07:32:17;11.38;;;2.35;;
76495;SDS011;65329;52.544;4.662;2023-04-24T07:34:44;9.00;;;2.28;;
76495;SDS011;65329;52.544;4.662;2023-04-24T07:37:12;11.40;;;2.22;;
76495;SDS011;65329;52.544;4.662;2023-04-24T07:39:39;12.38;;;1.73;;
76495;SDS011;65329;52.544;4.662;2023-04-24T07:42:07;6.32;;;1.30;;
76495;SDS011;65329;52.544;4.662;2023-04-24T07:44:34;9.48;;;2.60;;
76495;SDS011;65329;52.544;4.662;2023-04-24T07:47:01;10.40;;;2.17;;
76495;SDS011;65329;52.544;4.662;2023-04-24T07:49:28;9.93;;;2.55;;
76495;SDS011;65329;52.544;4.662;2023-04-24T07:51:55;5.80;;;1.48;;
76495;SDS011;65329;52.544;4.662;2023-04-24T07:54:21;6.55;;;1.83;;
76495;SDS011;65329;52.544;4.662;2023-04-24T07:56:48;5.78;;;1.85;;
76495;SDS011;65329;52.544;4.662;2023-04-24T07:59:18;9.15;;;1.70;;
76495;SDS011;65329;52.544;4.662;2023-04-24T08:01:45;5.13;;;1.17;;
76495;SDS011;65329;52.544;4.662;2023-04-24T08:04:12;8.23;;;1.58;;
76495;SDS011;65329;52.544;4.662;2023-04-24T08:06:39;5.55;;;1.33;;
76495;SDS011;65329;52.544;4.662;2023-04-24T08:09:06;6.57;;;1.42;;
76495;SDS011;65329;52.544;4.662;2023-04-24T08:11:34;5.38;;;1.40;;
76495;SDS011;65329;52.544;4.662;2023-04-24T08:14:00;8.73;;;1.50;;
76495;SDS011;65329;52.544;4.662;2023-04-24T08:16:27;10.82;;;1.55;;
76495;SDS011;65329;52.544;4.662;2023-04-24T08:18:55;8.68;;;1.80;;
76495;SDS011;65329;52.544;4.662;2023-04-24T08:21:22;7.80;;;1.55;;
76495;SDS011;65329;52.544;4.662;2023-04-24T08:23:49;8.40;;;1.48;;
76495;SDS011;65329;52.544;4.662;2023-04-24T08:26:16;4.25;;;1.55;;
76495;SDS011;65329;52.544;4.662;2023-04-24T08:28:43;7.35;;;1.75;;
76495;SDS011;65329;52.544;4.662;2023-04-24T08:31:10;8.80;;;1.60;;
76495;SDS011;65329;52.544;4.662;2023-04-24T08:33:37;7.32;;;1.60;;
76495;SDS011;65329;52.544;4.662;2023-04-24T08:36:04;6.22;;;1.15;;
76495;SDS011;65329;52.544;4.662;2023-04-24T08:38:33;10.60;;;1.65;;
76495;SDS011;65329;52.544;4.662;2023-04-24T08:41:01;5.45;;;1.40;;
76495;SDS011;65329;52.544;4.662;2023-04-24T08:43:28;8.73;;;1.67;;
76495;SDS011;65329;52.544;4.662;2023-04-24T08:45:55;5.57;;;1.70;;
76495;SDS011;65329;52.544;4.662;2023-04-24T08:48:23;7.30;;;1.90;;
76495;SDS011;65329;52.544;4.662;2023-04-24T08:50:57;6.53;;;1.45;;
76495;SDS011;65329;52.544;4.662;2023-04-24T08:53:25;13.05;;;1.77;;
76495;SDS011;65329;52.544;4.662;2023-04-24T08:55:54;5.95;;;1.63;;
76495;SDS011;65329;52.544;4.662;2023-04-24T08:58:22;5.22;;;1.08;;
76495;SDS011;65329;52.544;4.662;2023-04-24T09:00:57;8.98;;;1.20;;
76495;SDS011;65329;52.544;4.662;2023-04-24T09:03:24;8.52;;;1.30;;
76495;SDS011;65329;52.544;4.662;2023-04-24T09:05:55;6.45;;;1.60;;
76495;SDS011;65329;52.544;4.662;2023-04-24T09:08:23;5.90;;;1.27;;
76495;SDS011;65329;52.544;4.662;2023-04-24T09:10:52;8.45;;;2.03;;
76495;SDS011;65329;52.544;4.662;2023-04-24T09:13:19;5.57;;;1.20;;
76495;SDS011;65329;52.544;4.662;2023-04-24T09:15:52;5.00;;;1.00;;
76495;SDS011;65329;52.544;4.662;2023-04-24T09:18:19;6.43;;;1.10;;
76495;SDS011;65329;52.544;4.662;2023-04-24T09:21:02;7.60;;;1.23;;
76495;SDS011;65329;52.544;4.662;2023-04-24T09:23:34;5.82;;;0.88;;
76495;SDS011;65329;52.544;4.662;2023-04-24T09:26:02;3.17;;;0.88;;
76495;SDS011;65329;52.544;4.662;2023-04-24T09:33:35;3.05;;;0.52;;
76495;SDS011;65329;52.544;4.662;2023-04-24T09:36:02;4.05;;;0.98;;
76495;SDS011;65329;52.544;4.662;2023-04-24T09:38:34;7.72;;;1.77;;
76495;SDS011;65329;52.544;4.662;2023-04-24T09:41:06;6.25;;;1.35;;
76495;SDS011;65329;52.544;4.662;2023-04-24T09:43:34;4.15;;;0.77;;
76495;SDS011;65329;52.544;4.662;2023-04-24T09:46:05;4.40;;;1.35;;
76495;SDS011;65329;52.544;4.662;2023-04-24T09:48:35;4.60;;;0.90;;
76495;SDS011;65329;52.544;4.662;2023-04-24T09:51:03;4.43;;;0.80;;
76495;SDS011;65329;52.544;4.662;2023-04-24T09:53:33;4.68;;;0.60;;
76495;SDS011;65329;52.544;4.662;2023-04-24T09:56:07;4.03;;;1.00;;
76495;SDS011;65329;52.544;4.662;2023-04-24T09:58:35;4.13;;;0.80;;
76495;SDS011;65329;52.544;4.662;2023-04-24T10:01:03;2.80;;;0.60;;
76495;SDS011;65329;52.544;4.662;2023-04-24T10:03:31;5.47;;;0.70;;
76495;SDS011;65329;52.544;4.662;2023-04-24T10:05:59;4.82;;;0.77;;
76495;SDS011;65329;52.544;4.662;2023-04-24T10:08:26;4.40;;;0.52;;
76495;SDS011;65329;52.544;4.662;2023-04-24T10:10:59;3.80;;;1.17;;
76495;SDS011;65329;52.544;4.662;2023-04-24T10:13:28;2.17;;;0.30;;
76495;SDS011;65329;52.544;4.662;2023-04-24T10:15:55;2.58;;;0.57;;
76495;SDS011;65329;52.544;4.662;2023-04-24T10:18:23;3.33;;;0.47;;
76495;SDS011;65329;52.544;4.662;2023-04-24T10:20:51;5.10;;;0.70;;
76495;SDS011;65329;52.544;4.662;2023-04-24T10:23:21;4.40;;;0.50;;
76495;SDS011;65329;52.544;4.662;2023-04-24T10:25:49;3.95;;;0.50;;
76495;SDS011;65329;52.544;4.662;2023-04-24T10:28:17;3.55;;;0.98;;
76495;SDS011;65329;52.544;4.662;2023-04-24T10:30:45;5.45;;;1.02;;
76495;SDS011;65329;52.544;4.662;2023-04-24T10:33:16;3.35;;;0.40;;
76495;SDS011;65329;52.544;4.662;2023-04-24T10:35:45;3.15;;;0.47;;
76495;SDS011;65329;52.544;4.662;2023-04-24T10:38:22;2.00;;;0.40;;
76495;SDS011;65329;52.544;4.662;2023-04-24T10:40:57;3.40;;;0.40;;
76495;SDS011;65329;52.544;4.662;2023-04-24T10:43:34;5.63;;;0.68;;
76495;SDS011;65329;52.544;4.662;2023-04-24T10:46:02;4.30;;;0.82;;
76495;SDS011;65329;52.544;4.662;2023-04-24T10:48:31;6.47;;;1.42;;
76495;SDS011;65329;52.544;4.662;2023-04-24T10:50:58;3.17;;;0.50;;
76495;SDS011;65329;52.544;4.662;2023-04-24T10:53:29;10.00;;;1.25;;
76495;SDS011;65329;52.544;4.662;2023-04-24T10:56:04;6.10;;;0.90;;
76495;SDS011;65329;52.544;4.662;2023-04-24T11:01:06;3.92;;;0.73;;
76495;SDS011;65329;52.544;4.662;2023-04-24T11:03:34;7.65;;;0.75;;
76495;SDS011;65329;52.544;4.662;2023-04-24T11:08:43;2.55;;;0.73;;
76495;SDS011;65329;52.544;4.662;2023-04-24T11:16:25;6.40;;;1.10;;
76495;SDS011;65329;52.544;4.662;2023-04-24T11:18:56;1.98;;;0.52;;
76495;SDS011;65329;52.544;4.662;2023-04-24T11:22:13;6.15;;;1.08;;
76495;SDS011;65329;52.544;4.662;2023-04-24T11:27:19;2.85;;;0.90;;
76495;SDS011;65329;52.544;4.662;2023-04-24T11:32:29;5.72;;;0.75;;
76495;SDS011;65329;52.544;4.662;2023-04-24T11:35:00;6.03;;;1.00;;
76495;SDS011;65329;52.544;4.662;2023-04-24T11:37:36;2.85;;;0.50;;
76495;SDS011;65329;52.544;4.662;2023-04-24T11:40:05;5.78;;;0.80;;
76495;SDS011;65329;52.544;4.662;2023-04-24T11:42:38;3.40;;;1.30;;
76495;SDS011;65329;52.544;4.662;2023-04-24T11:45:08;7.28;;;1.83;;
76495;SDS011;65329;52.544;4.662;2023-04-24T11:47:36;7.47;;;1.90;;
76495;SDS011;65329;52.544;4.662;2023-04-24T11:50:05;8.38;;;1.90;;
76495;SDS011;65329;52.544;4.662;2023-04-24T11:52:37;11.55;;;1.70;;
76495;SDS011;65329;52.544;4.662;2023-04-24T11:55:25;7.47;;;1.67;;
76495;SDS011;65329;52.544;4.662;2023-04-24T11:57:54;10.05;;;1.85;;
76495;SDS011;65329;52.544;4.662;2023-04-24T12:00:24;11.18;;;1.70;;
76495;SDS011;65329;52.544;4.662;2023-04-24T12:05:35;8.52;;;2.20;;
76495;SDS011;65329;52.544;4.662;2023-04-24T12:08:03;7.80;;;1.50;;
76495;SDS011;65329;52.544;4.662;2023-04-24T12:10:31;17.00;;;2.83;;
76495;SDS011;65329;52.544;4.662;2023-04-24T12:12:59;5.28;;;1.45;;
76495;SDS011;65329;52.544;4.662;2023-04-24T12:15:26;5.80;;;1.33;;
76495;SDS011;65329;52.544;4.662;2023-04-24T12:17:55;6.35;;;1.52;;
76495;SDS011;65329;52.544;4.662;2023-04-24T12:20:31;8.82;;;1.63;;
76495;SDS011;65329;52.544;4.662;2023-04-24T12:23:00;9.13;;;1.63;;
76495;SDS011;65329;52.544;4.662;2023-04-24T12:25:28;6.13;;;1.40;;
76495;SDS011;65329;52.544;4.662;2023-04-24T12:30:31;10.90;;;2.10;;
76495;SDS011;65329;52.544;4.662;2023-04-24T12:33:00;7.90;;;1.70;;
76495;SDS011;65329;52.544;4.662;2023-04-24T12:35:29;6.28;;;1.30;;
76495;SDS011;65329;52.544;4.662;2023-04-24T12:38:10;9.00;;;1.73;;
76495;SDS011;65329;52.544;4.662;2023-04-24T12:40:42;6.85;;;1.65;;
76495;SDS011;65329;52.544;4.662;2023-04-24T12:43:17;6.70;;;1.90;;
76495;SDS011;65329;52.544;4.662;2023-04-24T12:45:45;13.50;;;2.20;;
76495;SDS011;65329;52.544;4.662;2023-04-24T12:48:14;7.57;;;1.75;;
76495;SDS011;65329;52.544;4.662;2023-04-24T12:50:41;8.98;;;2.30;;
76495;SDS011;65329;52.544;4.662;2023-04-24T12:53:12;6.47;;;1.63;;
76495;SDS011;65329;52.544;4.662;2023-04-24T12:55:41;6.93;;;1.70;;
76495;SDS011;65329;52.544;4.662;2023-04-24T12:58:08;9.05;;;1.67;;
76495;SDS011;65329;52.544;4.662;2023-04-24T13:00:35;9.95;;;2.88;;
76495;SDS011;65329;52.544;4.662;2023-04-24T13:03:03;9.95;;;1.95;;
76495;SDS011;65329;52.544;4.662;2023-04-24T13:05:31;14.52;;;2.70;;
76495;SDS011;65329;52.544;4.662;2023-04-24T13:07:59;10.10;;;2.05;;
76495;SDS011;65329;52.544;4.662;2023-04-24T13:10:28;5.43;;;1.98;;
76495;SDS011;65329;52.544;4.662;2023-04-24T13:12:56;6.97;;;1.67;;
76495;SDS011;65329;52.544;4.662;2023-04-24T13:15:24;14.13;;;2.80;;
76495;SDS011;65329;52.544;4.662;2023-04-24T13:17:54;12.52;;;2.50;;
76495;SDS011;65329;52.544;4.662;2023-04-24T13:20:21;7.22;;;1.40;;
76495;SDS011;65329;52.544;4.662;2023-04-24T13:22:48;11.85;;;2.17;;
76495;SDS011;65329;52.544;4.662;2023-04-24T13:25:15;6.05;;;1.25;;
76495;SDS011;65329;52.544;4.662;2023-04-24T13:27:43;10.85;;;2.10;;
76495;SDS011;65329;52.544;4.662;2023-04-24T13:30:10;8.82;;;2.25;;
76495;SDS011;65329;52.544;4.662;2023-04-24T13:32:37;14.25;;;2.15;;
76495;SDS011;65329;52.544;4.662;2023-04-24T13:35:04;11.60;;;2.15;;
76495;SDS011;65329;52.544;4.662;2023-04-24T13:37:32;6.13;;;1.83;;
76495;SDS011;65329;52.544;4.662;2023-04-24T13:39:59;12.13;;;2.10;;
76495;SDS011;65329;52.544;4.662;2023-04-24T13:42:26;8.15;;;2.17;;
76495;SDS011;65329;52.544;4.662;2023-04-24T13:44:53;10.13;;;2.80;;
76495;SDS011;65329;52.544;4.662;2023-04-24T13:47:20;7.50;;;1.70;;
76495;SDS011;65329;52.544;4.662;2023-04-24T13:49:47;14.00;;;2.42;;
76495;SDS011;65329;52.544;4.662;2023-04-24T13:52:16;10.27;;;2.45;;
76495;SDS011;65329;52.544;4.662;2023-04-24T13:54:43;11.60;;;2.60;;
76495;SDS011;65329;52.544;4.662;2023-04-24T13:57:10;11.60;;;2.67;;
76495;SDS011;65329;52.544;4.662;2023-04-24T13:59:37;9.93;;;2.85;;
76495;SDS011;65329;52.544;4.662;2023-04-24T14:02:04;9.68;;;2.70;;
76495;SDS011;65329;52.544;4.662;2023-04-24T14:04:31;12.68;;;1.88;;
76495;SDS011;65329;52.544;4.662;2023-04-24T14:07:00;10.60;;;2.17;;
76495;SDS011;65329;52.544;4.662;2023-04-24T14:09:26;9.32;;;2.40;;
76495;SDS011;65329;52.544;4.662;2023-04-24T14:11:54;15.45;;;2.92;;
76495;SDS011;65329;52.544;4.662;2023-04-24T14:14:20;9.98;;;2.10;;
76495;SDS011;65329;52.544;4.662;2023-04-24T14:16:47;7.50;;;1.80;;
76495;SDS011;65329;52.544;4.662;2023-04-24T14:19:15;7.65;;;2.20;;
76495;SDS011;65329;52.544;4.662;2023-04-24T14:21:42;9.23;;;1.95;;
76495;SDS011;65329;52.544;4.662;2023-04-24T14:24:08;13.05;;;2.72;;
76495;SDS011;65329;52.544;4.662;2023-04-24T14:26:35;12.88;;;2.70;;
76495;SDS011;65329;52.544;4.662;2023-04-24T14:29:02;11.25;;;2.30;;
76495;SDS011;65329;52.544;4.662;2023-04-24T14:31:39;8.52;;;1.92;;
76495;SDS011;65329;52.544;4.662;2023-04-24T14:34:07;12.20;;;2.15;;
76495;SDS011;65329;52.544;4.662;2023-04-24T14:36:33;7.82;;;1.85;;
76495;SDS011;65329;52.544;4.662;2023-04-24T14:39:01;7.15;;;2.08;;
76495;SDS011;65329;52.544;4.662;2023-04-24T14:41:33;7.30;;;2.10;;
76495;SDS011;65329;52.544;4.662;2023-04-24T14:44:02;9.43;;;1.95;;
76495;SDS011;65329;52.544;4.662;2023-04-24T14:46:30;14.27;;;1.77;;
76495;SDS011;65329;52.544;4.662;2023-04-24T14:48:57;12.82;;;2.72;;
76495;SDS011;65329;52.544;4.662;2023-04-24T14:51:24;5.53;;;1.60;;
76495;SDS011;65329;52.544;4.662;2023-04-24T14:53:52;7.53;;;2.10;;
76495;SDS011;65329;52.544;4.662;2023-04-24T14:56:19;6.35;;;1.70;;
76495;SDS011;65329;52.544;4.662;2023-04-24T14:58:46;9.50;;;1.95;;
76495;SDS011;65329;52.544;4.662;2023-04-24T15:01:13;8.48;;;2.28;;
76495;SDS011;65329;52.544;4.662;2023-04-24T15:03:40;6.45;;;1.85;;
76495;SDS011;65329;52.544;4.662;2023-04-24T15:06:08;7.65;;;2.05;;
76495;SDS011;65329;52.544;4.662;2023-04-24T15:08:35;10.50;;;2.90;;
76495;SDS011;65329;52.544;4.662;2023-04-24T15:11:02;6.63;;;1.75;;
76495;SDS011;65329;52.544;4.662;2023-04-24T15:13:29;7.85;;;1.90;;
76495;SDS011;65329;52.544;4.662;2023-04-24T15:15:56;11.48;;;1.92;;
76495;SDS011;65329;52.544;4.662;2023-04-24T15:18:24;9.80;;;2.15;;
76495;SDS011;65329;52.544;4.662;2023-04-24T15:20:51;6.82;;;1.60;;
76495;SDS011;65329;52.544;4.662;2023-04-24T15:23:17;10.57;;;2.28;;
76495;SDS011;65329;52.544;4.662;2023-04-24T15:25:44;7.60;;;1.98;;
76495;SDS011;65329;52.544;4.662;2023-04-24T15:28:11;10.85;;;2.00;;